createdAt,value
2023-02-21T00:04:38.322Z,9.53
2023-02-21T00:09:59.048Z,9.53
2023-02-21T00:15:19.047Z,9.56
2023-02-21T00:20:38.832Z,9.54
2023-02-21T00:25:59.225Z,9.54
2023-02-21T00:31:20.180Z,9.53
2023-02-21T00:36:40.383Z,9.48
2023-02-21T00:42:00.240Z,9.47
2023-02-21T00:47:20.100Z,9.45
2023-02-21T00:52:40.001Z,9.43
2023-02-21T00:57:59.858Z,9.45
2023-02-21T01:03:19.656Z,9.47
2023-02-21T01:08:39.816Z,9.48
2023-02-21T01:13:59.791Z,9.46
2023-02-21T01:19:19.931Z,9.49
2023-02-21T01:24:40.009Z,9.50
2023-02-21T01:30:00.144Z,9.50
2023-02-21T01:35:20.216Z,9.51
2023-02-21T01:40:40.370Z,9.49
2023-02-21T01:46:06.114Z,9.49
2023-02-21T01:51:29.077Z,9.52
2023-02-21T01:56:50.014Z,9.51
2023-02-21T02:02:25.203Z,9.53
2023-02-21T02:07:45.105Z,9.53
2023-02-21T02:13:11.036Z,9.56
2023-02-21T02:18:34.330Z,9.58
2023-02-21T02:23:54.180Z,9.59
2023-02-21T02:29:32.505Z,9.59
2023-02-21T02:35:11.162Z,9.58
2023-02-21T02:40:28.269Z,9.58
2023-02-21T02:45:40.430Z,9.57
2023-02-21T02:50:47.117Z,9.58
2023-02-21T02:55:57.016Z,9.59
2023-02-21T03:01:22.753Z,9.61
2023-02-21T03:06:49.283Z,9.63
2023-02-21T03:12:08.607Z,9.65
2023-02-21T03:17:13.583Z,9.68
2023-02-21T03:22:19.189Z,9.69
2023-02-21T03:27:25.242Z,9.71
2023-02-21T03:32:54.809Z,9.74
2023-02-21T03:37:59.528Z,9.77
2023-02-21T03:43:03.728Z,9.76
2023-02-21T03:48:09.185Z,9.74
2023-02-21T03:53:12.603Z,9.68
2023-02-21T03:58:18.259Z,9.66
2023-02-21T04:03:20.034Z,9.69
2023-02-21T04:08:28.090Z,9.73
2023-02-21T04:13:30.191Z,9.75
2023-02-21T04:18:32.276Z,9.75
2023-02-21T04:23:36.019Z,9.77
2023-02-21T04:28:38.911Z,9.82
2023-02-21T04:33:40.815Z,9.82
2023-02-21T04:38:44.537Z,9.84
2023-02-21T04:43:46.470Z,9.84
2023-02-21T04:48:50.792Z,9.84
2023-02-21T04:53:54.340Z,9.84
2023-02-21T04:58:56.483Z,9.83
2023-02-21T05:03:59.657Z,9.84
2023-02-21T05:09:01.622Z,9.83
2023-02-21T05:14:03.689Z,9.85
2023-02-21T05:19:05.204Z,9.87
2023-02-21T05:24:07.159Z,9.91
2023-02-21T05:29:08.586Z,9.91
2023-02-21T05:34:10.549Z,9.90
2023-02-21T05:39:11.976Z,9.89
2023-02-21T05:44:13.439Z,9.87
2023-02-21T05:49:14.842Z,9.86
2023-02-21T05:54:18.991Z,9.84
2023-02-21T05:59:21.427Z,9.81
2023-02-21T06:04:23.613Z,9.81
2023-02-21T06:09:25.201Z,9.80
2023-02-21T06:14:26.881Z,9.80
2023-02-21T06:19:28.355Z,9.81
2023-02-21T06:24:29.765Z,9.85
2023-02-21T06:29:31.164Z,9.86
2023-02-21T06:34:32.694Z,9.85
2023-02-21T06:39:34.187Z,9.85
2023-02-21T06:44:35.570Z,9.85
2023-02-21T06:49:36.977Z,9.86
2023-02-21T06:54:38.443Z,9.90
2023-02-21T06:59:41.142Z,9.95
2023-02-21T07:04:42.570Z,9.98
2023-02-21T07:09:44.079Z,10.03
2023-02-21T07:14:45.571Z,10.04
2023-02-21T07:19:46.978Z,10.07
2023-02-21T07:24:48.366Z,10.10
2023-02-21T07:29:50.243Z,10.08
2023-02-21T07:34:51.632Z,10.11
2023-02-21T07:39:53.423Z,10.14
2023-02-21T07:44:58.196Z,10.14
2023-02-21T07:49:59.615Z,10.12
2023-02-21T07:55:01.069Z,10.11
2023-02-21T08:00:02.969Z,10.14
2023-02-21T08:05:15.591Z,10.15
2023-02-21T08:10:23.101Z,10.13
2023-02-21T08:15:24.603Z,10.11
2023-02-21T08:20:26.309Z,10.12
2023-02-21T08:25:27.711Z,10.12
2023-02-21T08:30:29.193Z,10.08
2023-02-21T08:35:30.906Z,10.14
2023-02-21T08:40:32.771Z,10.14
2023-02-21T08:45:34.322Z,10.16
2023-02-21T08:50:35.873Z,10.21
2023-02-21T08:55:37.400Z,10.26
2023-02-21T09:00:39.067Z,10.32
2023-02-21T09:05:40.617Z,10.39
2023-02-21T09:10:47.170Z,10.47
2023-02-21T09:15:48.816Z,10.53
2023-02-21T09:20:52.066Z,10.67
2023-02-21T09:25:53.849Z,10.72
2023-02-21T09:30:55.363Z,10.72
2023-02-21T09:35:57.007Z,10.76
2023-02-21T09:41:03.726Z,10.81
2023-02-21T09:46:31.196Z,10.98
2023-02-21T09:51:36.969Z,11.02
2023-02-21T09:56:40.372Z,11.06
2023-02-21T10:02:14.707Z,11.08
2023-02-21T10:07:41.159Z,11.04
2023-02-21T10:13:01.534Z,11.00
2023-02-21T10:18:25.003Z,10.97
2023-02-21T10:23:32.762Z,11.01
2023-02-21T10:28:34.316Z,11.20
2023-02-21T10:33:38.334Z,11.29
2023-02-21T10:38:42.855Z,11.39
2023-02-21T10:43:49.948Z,11.53
2023-02-21T10:48:53.613Z,11.54
2023-02-21T10:54:22.772Z,11.44
2023-02-21T10:59:33.848Z,11.39
2023-02-21T11:04:35.683Z,11.41
2023-02-21T11:09:47.688Z,11.52
2023-02-21T11:14:52.271Z,11.62
2023-02-21T11:20:07.599Z,11.61
2023-02-21T11:25:11.811Z,11.54
2023-02-21T11:30:20.966Z,11.56
2023-02-21T11:35:36.246Z,11.51
2023-02-21T11:40:49.037Z,11.35
2023-02-21T11:46:18.394Z,11.31
2023-02-21T11:51:48.723Z,11.37
2023-02-21T11:57:03.681Z,11.46
2023-02-21T12:02:39.743Z,11.47
2023-02-21T12:07:44.231Z,11.50
2023-02-21T12:13:03.589Z,11.52
2023-02-21T12:18:21.694Z,11.51
2023-02-21T12:24:00.023Z,11.48
2023-02-21T12:29:21.412Z,11.37
2023-02-21T12:34:36.580Z,11.27
2023-02-21T12:40:02.269Z,11.19
2023-02-21T12:45:38.351Z,11.10
2023-02-21T12:50:42.934Z,11.05
2023-02-21T12:56:06.890Z,11.14
2023-02-21T13:01:26.912Z,11.24
2023-02-21T13:06:35.680Z,11.34
2023-02-21T13:11:49.832Z,11.40
2023-02-21T13:16:53.303Z,11.42
2023-02-21T13:22:51.130Z,11.55
2023-02-21T13:28:19.206Z,11.63
2023-02-21T13:33:27.853Z,11.61
2023-02-21T13:38:32.156Z,11.55
2023-02-21T13:43:35.899Z,11.53
2023-02-21T13:48:37.362Z,11.45
2023-02-21T13:54:08.945Z,11.41
2023-02-21T13:59:22.798Z,11.34
2023-02-21T14:04:55.244Z,11.30
2023-02-21T14:09:56.803Z,11.26
2023-02-21T14:15:08.358Z,11.30
2023-02-21T14:20:20.166Z,11.23
2023-02-21T14:25:24.721Z,11.18
2023-02-21T14:30:30.218Z,11.21
2023-02-21T14:35:51.517Z,11.22
2023-02-21T14:41:23.023Z,11.23
2023-02-21T14:46:40.903Z,11.22
2023-02-21T14:52:20.230Z,11.25
2023-02-21T14:57:34.838Z,11.25
2023-02-21T15:02:47.441Z,11.22
2023-02-21T15:07:49.211Z,11.20
2023-02-21T15:12:56.446Z,11.18
2023-02-21T15:18:28.566Z,11.19
2023-02-21T15:23:30.034Z,11.19
2023-02-21T15:28:33.198Z,11.14
2023-02-21T15:33:39.882Z,11.12
2023-02-21T15:38:46.864Z,11.09
2023-02-21T15:43:48.219Z,11.06
2023-02-21T15:48:51.742Z,11.03
2023-02-21T15:54:17.611Z,11.00
2023-02-21T15:59:25.499Z,10.98
2023-02-21T16:04:38.836Z,10.97
2023-02-21T16:09:44.942Z,10.94
2023-02-21T16:15:08.803Z,10.92
2023-02-21T16:20:24.785Z,10.90
2023-02-21T16:25:26.201Z,10.87
2023-02-21T16:30:30.345Z,10.88
2023-02-21T16:35:33.401Z,10.91
2023-02-21T16:40:36.389Z,10.90
2023-02-21T16:45:41.859Z,10.88
2023-02-21T16:50:45.564Z,10.88
2023-02-21T16:55:48.162Z,10.85
2023-02-21T17:00:51.378Z,10.83
2023-02-21T17:05:53.541Z,10.80
2023-02-21T17:10:57.353Z,10.78
2023-02-21T17:15:59.175Z,10.78
2023-02-21T17:21:01.641Z,10.76
2023-02-21T17:26:04.345Z,10.75
2023-02-21T17:31:06.576Z,10.73
2023-02-21T17:36:08.587Z,10.70
2023-02-21T17:41:10.811Z,10.67
2023-02-21T17:46:14.185Z,10.65
2023-02-21T17:51:27.454Z,10.63
2023-02-21T17:56:29.075Z,10.63
2023-02-21T18:01:31.217Z,10.62
2023-02-21T18:06:32.997Z,10.60
2023-02-21T18:11:37.594Z,10.56
2023-02-21T18:16:39.041Z,10.57
2023-02-21T18:21:41.340Z,10.55
2023-02-21T18:26:42.831Z,10.55
2023-02-21T18:31:44.408Z,10.52
2023-02-21T18:36:53.882Z,10.49
2023-02-21T18:41:55.280Z,10.47
2023-02-21T18:46:58.319Z,10.45
2023-02-21T18:52:01.241Z,10.42
2023-02-21T18:57:03.389Z,10.40
2023-02-21T19:02:06.057Z,10.39
2023-02-21T19:07:08.563Z,10.37
2023-02-21T19:12:10.089Z,10.35
2023-02-21T19:17:11.578Z,10.36
2023-02-21T19:22:20.835Z,10.34
2023-02-21T19:27:24.118Z,10.30
2023-02-21T19:32:26.490Z,10.29
2023-02-21T19:37:28.531Z,10.31
2023-02-21T19:42:30.667Z,10.28
2023-02-21T19:47:33.398Z,10.27
2023-02-21T19:52:35.655Z,10.24
2023-02-21T19:57:37.223Z,10.22
2023-02-21T20:02:38.915Z,10.18
2023-02-21T20:07:41.128Z,10.19
2023-02-21T20:12:42.756Z,10.20
2023-02-21T20:17:44.845Z,10.23
2023-02-21T20:22:46.309Z,10.17
2023-02-21T20:27:48.197Z,10.15
2023-02-21T20:32:51.920Z,10.15
2023-02-21T20:37:54.218Z,10.12
2023-02-21T20:42:57.037Z,10.08
2023-02-21T20:47:58.670Z,10.05
2023-02-21T20:53:01.618Z,10.06
2023-02-21T20:58:05.504Z,10.05
2023-02-21T21:03:09.371Z,10.02
2023-02-21T21:08:12.445Z,10.01
2023-02-21T21:13:16.331Z,9.97
2023-02-21T21:18:18.075Z,9.98
2023-02-21T21:23:20.169Z,9.99
2023-02-21T21:28:21.916Z,10.00
2023-02-21T21:33:23.377Z,10.01
2023-02-21T21:38:26.664Z,9.99
2023-02-21T21:43:28.484Z,9.99
2023-02-21T21:48:31.095Z,9.98
2023-02-21T21:53:36.161Z,10.00
2023-02-21T21:58:42.099Z,10.06
2023-02-21T22:03:44.381Z,10.08
2023-02-21T22:08:45.794Z,10.13
2023-02-21T22:13:47.192Z,10.12
2023-02-21T22:18:48.962Z,10.09
2023-02-21T22:23:51.545Z,10.07
2023-02-21T22:28:53.509Z,10.08
2023-02-21T22:33:59.028Z,10.08
2023-02-21T22:39:08.206Z,10.03
2023-02-21T22:44:10.562Z,9.96
2023-02-21T22:49:13.139Z,9.91
2023-02-21T22:54:15.832Z,9.87
2023-02-21T22:59:19.192Z,9.96
2023-02-21T23:04:25.296Z,10.06
2023-02-21T23:09:29.691Z,10.11
2023-02-21T23:14:31.381Z,10.05
2023-02-21T23:19:32.881Z,9.87
2023-02-21T23:24:34.283Z,9.84
2023-02-21T23:29:35.784Z,9.88
2023-02-21T23:34:40.843Z,9.97
2023-02-21T23:39:42.537Z,10.02
2023-02-21T23:44:45.028Z,10.02
2023-02-21T23:49:46.546Z,9.90
2023-02-21T23:54:47.956Z,9.74
2023-02-21T23:59:49.463Z,9.60
